Airfield :
LOGIN :

Register | Disclaimer

   EN    FR    IT 

 










Legend :    VFR   Marginal VFR   IFR   Intensive IFR   Very Intensive IFR
Visi :
Ceiling :
>= 8 km
>= 3000ft
5 to 8 km
1000 to 3000 ft
1500m to 5 km
500 to 1000 ft
800 to 1500m
200 to 500 ft
< 800m
< 200 ft
Symbols :   Thunderstorms  Fog  Heavy snow  Heavy precipitations  Wind > 20 kt
SIGMETs :     Misc.  Thunderstorms  Icing  Turbulence  Mountain Waves  Volcanic Ashes







- Airport Elevation : 1470 ft
- IATA code : KLU


LOWK - Klagenfurt

CURRENT METAR :
  • 222350Z AUTO 31004KT 9999 OVC100 02/00 Q1012

EXPIRED METARs :
  • 222320Z AUTO 31004KT 9999 BKN100 02/00 Q1013
  • 222250Z AUTO VRB02KT 9999 FEW110 02/00 Q1012
  • 222220Z AUTO VRB01KT 9999 NCD 03/00 Q1012 NOSIG
  • 222150Z AUTO 30004KT 9999 NCD 04/01 Q1012 NOSIG
  • 222120Z AUTO VRB02KT 9999 FEW110 04/01 Q1012 NOSIG

TAF TAF LOWK
Valid from the 23 at 00:00 until the 24 at 00:00 UTC


222315Z 2300/2324 VRB02KT 9999 FEW050 SCT250 TX13/2313Z TN00/2305Z
PROB30
TEMPO 2302/2308 3000 BR BKN004
TEMPO 2312/2316 25008KT
No reported NOTAMs for that airfield.



MET'MAP, your aeronautical weather chart ! - Copyright ORBIFLY December 2007 - Disclaimer

ORBIFLY MET'MAP TEAM :

Programming & Development : Alexandra Zaïnal
Concept & Development : Baudouin d'Aumeries
Co-Development & Prog : Marc-Olivier Méhu
Technical & hardware support : Manuel Goepfert

Contact : metmap@orbifly.com




SOURCES & CREDITS :

   NOAA